createdAt,value
2019-05-29T14:06:29.137Z,14.54
2019-05-29T14:08:58.937Z,14.55
2019-05-29T14:11:27.786Z,14.42
2019-05-29T14:13:56.581Z,14.51
2019-05-29T14:16:25.319Z,14.70
2019-05-29T14:18:54.212Z,15.08
2019-05-29T14:21:22.949Z,15.50
2019-05-29T14:23:51.786Z,15.49
2019-05-29T14:26:20.589Z,15.57
2019-05-29T14:28:49.468Z,16.07
2019-05-29T14:31:18.285Z,16.39
2019-05-29T14:33:47.140Z,16.29
2019-05-29T14:36:16.067Z,16.31
2019-05-29T14:38:44.978Z,15.87
2019-05-29T14:41:13.701Z,16.15
2019-05-29T14:43:42.466Z,16.27
2019-05-29T14:46:12.162Z,16.37
2019-05-29T14:48:40.902Z,16.29
2019-05-29T14:51:10.596Z,16.51
2019-05-29T14:53:39.526Z,16.86
2019-05-29T14:56:08.875Z,16.86
2019-05-29T14:58:37.671Z,16.16
2019-05-29T15:01:07.175Z,16.16
2019-05-29T15:03:36.059Z,15.91
2019-05-29T15:06:05.513Z,15.97
2019-05-29T15:08:34.295Z,15.88
2019-05-29T15:11:03.694Z,15.66
2019-05-29T15:13:32.614Z,15.78
2019-05-29T15:16:01.348Z,15.85
2019-05-29T15:18:30.171Z,15.77
2019-05-29T15:20:59.014Z,15.78
2019-05-29T15:23:27.740Z,15.55
2019-05-29T15:25:56.472Z,15.61
2019-05-29T15:28:25.207Z,15.36
2019-05-29T15:30:53.938Z,15.41
2019-05-29T15:33:22.727Z,15.20
2019-05-29T15:35:51.462Z,15.51
2019-05-29T15:38:20.175Z,15.62
2019-05-29T15:40:48.985Z,15.70
2019-05-29T15:43:17.901Z,15.50
2019-05-29T15:45:46.797Z,15.33
2019-05-29T15:48:15.535Z,15.46
2019-05-29T15:50:44.287Z,15.38
2019-05-29T15:53:13.211Z,15.55
2019-05-29T15:55:42.088Z,15.43
2019-05-29T15:58:11.203Z,15.56
2019-05-29T16:00:39.973Z,15.81
2019-05-29T16:03:09.428Z,15.63
2019-05-29T16:05:38.249Z,15.59
2019-05-29T16:08:07.960Z,15.55
2019-05-29T16:10:36.716Z,15.39
2019-05-29T16:13:05.562Z,15.50
2019-05-29T16:15:34.285Z,15.67
2019-05-29T16:18:03.050Z,15.91
2019-05-29T16:20:31.859Z,15.81
2019-05-29T16:23:00.594Z,15.94
2019-05-29T16:25:39.385Z,16.34
2019-05-29T16:27:59.777Z,16.21
2019-05-29T16:30:28.743Z,16.49
2019-05-29T16:32:57.610Z,16.70
